createdAt,value
2018-12-07T00:00:25.412Z,95.27
2018-12-07T00:01:25.392Z,95.55
2018-12-07T00:02:25.379Z,95.27
2018-12-07T00:03:25.367Z,95.36
2018-12-07T00:04:25.345Z,95.65
2018-12-07T00:05:25.331Z,95.84
2018-12-07T00:06:25.313Z,95.65
2018-12-07T00:07:25.309Z,95.84
2018-12-07T00:08:25.283Z,95.84
2018-12-07T00:09:25.280Z,95.65
2018-12-07T00:10:25.261Z,95.65
2018-12-07T00:11:25.238Z,95.17
2018-12-07T00:12:25.226Z,94.89
2018-12-07T00:13:25.207Z,95.17
2018-12-07T00:14:25.194Z,95.46
2018-12-07T00:15:25.174Z,95.74
2018-12-07T00:16:25.164Z,95.74
2018-12-07T00:17:25.146Z,95.65
2018-12-07T00:18:25.135Z,95.65
2018-12-07T00:19:25.114Z,95.65
2018-12-07T00:20:25.097Z,95.74
2018-12-07T00:21:25.089Z,95.93
2018-12-07T00:22:25.071Z,95.74
2018-12-07T00:23:25.055Z,96.03
2018-12-07T00:24:25.045Z,95.17
2018-12-07T00:25:25.024Z,95.74
2018-12-07T00:26:25.009Z,95.07
2018-12-07T00:27:24.994Z,94.89
2018-12-07T00:28:24.977Z,95.07
2018-12-07T00:29:24.962Z,95.46
2018-12-07T00:30:24.945Z,95.17
2018-12-07T00:31:24.936Z,95.17
2018-12-07T00:32:24.917Z,95.65
2018-12-07T00:33:24.899Z,94.89
2018-12-07T00:34:24.884Z,95.07
2018-12-07T00:35:24.869Z,94.79
2018-12-07T00:36:24.860Z,94.32
2018-12-07T00:37:24.845Z,94.89
2018-12-07T00:38:24.818Z,95.07
2018-12-07T00:39:24.812Z,95.17
2018-12-07T00:40:24.793Z,95.65
2018-12-07T00:41:24.771Z,95.55
2018-12-07T00:42:24.760Z,95.36
2018-12-07T00:43:24.741Z,95.55
2018-12-07T00:44:24.735Z,95.84
2018-12-07T00:45:24.718Z,96.12
2018-12-07T00:46:24.698Z,96.12
2018-12-07T00:47:24.690Z,96.03
2018-12-07T00:48:24.670Z,95.36
2018-12-07T00:49:24.656Z,95.46
2018-12-07T00:50:24.638Z,95.93
2018-12-07T00:51:24.624Z,95.69
2018-12-07T00:52:24.604Z,95.98
2018-12-07T00:53:24.610Z,95.79
2018-12-07T00:54:24.576Z,96.26
2018-12-07T00:55:24.564Z,96.17
2018-12-07T00:56:24.547Z,96.08
2018-12-07T00:57:24.527Z,96.45
2018-12-07T00:58:24.520Z,96.55
2018-12-07T00:59:24.498Z,96.45
2018-12-07T01:00:24.488Z,96.45
2018-12-07T01:01:24.459Z,96.17
2018-12-07T01:02:24.457Z,96.45
2018-12-07T01:03:24.438Z,96.26
2018-12-07T01:04:24.422Z,96.36
2018-12-07T01:05:24.408Z,96.26
2018-12-07T01:06:24.387Z,96.17
2018-12-07T01:07:24.375Z,96.50
2018-12-07T01:08:24.359Z,96.31
2018-12-07T01:09:24.348Z,96.50
2018-12-07T01:10:24.321Z,96.31
2018-12-07T01:11:24.312Z,96.41
2018-12-07T01:12:24.293Z,96.17
2018-12-07T01:13:24.283Z,96.50
2018-12-07T01:14:24.266Z,96.41
2018-12-07T01:15:24.248Z,95.84
2018-12-07T01:16:24.230Z,95.36
2018-12-07T01:17:24.217Z,95.65
2018-12-07T01:18:24.203Z,95.27
2018-12-07T01:19:24.182Z,95.65
2018-12-07T01:20:24.169Z,95.17
2018-12-07T01:21:24.159Z,95.46
2018-12-07T01:22:24.139Z,95.55
2018-12-07T01:23:24.123Z,94.89
2018-12-07T01:24:24.107Z,94.89
2018-12-07T01:25:24.093Z,94.89
2018-12-07T01:26:24.078Z,94.79
2018-12-07T01:27:24.062Z,95.55
2018-12-07T01:28:24.044Z,95.36
2018-12-07T01:29:24.025Z,95.65
2018-12-07T01:30:24.027Z,95.55
2018-12-07T01:31:24.002Z,95.41
2018-12-07T01:32:23.984Z,95.12
2018-12-07T01:33:23.973Z,94.74
2018-12-07T01:34:23.952Z,95.03
2018-12-07T01:35:23.938Z,95.31
2018-12-07T01:36:23.923Z,95.12
2018-12-07T01:37:23.906Z,95.50
2018-12-07T01:38:23.886Z,95.50
2018-12-07T01:39:23.875Z,95.50
2018-12-07T01:40:23.861Z,95.69
2018-12-07T01:41:23.841Z,95.41
2018-12-07T01:42:23.831Z,95.41
2018-12-07T01:43:23.815Z,95.69
2018-12-07T01:44:23.801Z,95.50
2018-12-07T01:45:23.789Z,95.22
2018-12-07T01:46:23.776Z,94.93
2018-12-07T01:47:23.748Z,95.50
2018-12-07T01:48:23.732Z,95.12
2018-12-07T01:49:23.715Z,95.07
2018-12-07T01:50:23.698Z,95.12
2018-12-07T01:51:23.688Z,95.27
2018-12-07T01:52:23.670Z,94.74
2018-12-07T01:53:23.659Z,94.89
2018-12-07T01:54:23.647Z,94.03
2018-12-07T01:55:23.621Z,93.89
2018-12-07T01:56:23.609Z,94.65
2018-12-07T01:57:23.595Z,94.27
2018-12-07T01:58:23.573Z,94.46
2018-12-07T01:59:23.561Z,93.99
2018-12-07T02:00:23.547Z,94.56
2018-12-07T02:01:23.535Z,94.65
2018-12-07T02:02:23.514Z,94.74
2018-12-07T02:03:23.498Z,94.46
2018-12-07T02:04:23.484Z,94.37
2018-12-07T02:05:23.471Z,94.37
2018-12-07T02:06:23.449Z,94.56
2018-12-07T02:07:23.434Z,94.37
2018-12-07T02:08:23.427Z,94.18
2018-12-07T02:09:23.406Z,94.46
2018-12-07T02:10:23.386Z,94.37
2018-12-07T02:11:23.370Z,94.08
2018-12-07T02:12:23.354Z,94.18
2018-12-07T02:13:23.344Z,94.84
2018-12-07T02:14:23.324Z,94.93
2018-12-07T02:15:23.310Z,95.03
2018-12-07T02:16:23.297Z,94.84
2018-12-07T02:17:23.280Z,95.03
2018-12-07T02:18:23.275Z,94.65
2018-12-07T02:19:23.253Z,94.74
2018-12-07T02:20:23.237Z,94.37
2018-12-07T02:21:23.219Z,94.08
2018-12-07T02:22:23.207Z,93.94
2018-12-07T02:23:23.187Z,93.70
2018-12-07T02:24:23.173Z,93.80
2018-12-07T02:25:23.160Z,93.37
2018-12-07T02:26:23.138Z,93.32
2018-12-07T02:27:23.125Z,92.57
2018-12-07T02:28:23.105Z,92.57
2018-12-07T02:29:23.088Z,92.28
2018-12-07T02:30:23.077Z,92.66
2018-12-07T02:31:23.061Z,92.76
2018-12-07T02:32:23.050Z,92.76
2018-12-07T02:33:23.031Z,92.66
2018-12-07T02:34:23.014Z,92.85
2018-12-07T02:35:23.008Z,92.76
2018-12-07T02:36:22.990Z,92.76
2018-12-07T02:37:22.971Z,93.13
2018-12-07T02:38:22.951Z,93.41
2018-12-07T02:39:22.935Z,93.41
2018-12-07T02:40:22.923Z,93.51
2018-12-07T02:41:22.908Z,93.13
2018-12-07T02:42:22.886Z,92.85
2018-12-07T02:43:22.874Z,92.47
2018-12-07T02:44:22.865Z,92.76
2018-12-07T02:45:22.850Z,93.13
2018-12-07T02:46:22.829Z,93.04
2018-12-07T02:47:22.811Z,93.61
2018-12-07T02:48:22.805Z,93.61
2018-12-07T02:49:22.777Z,93.89
2018-12-07T02:50:22.766Z,93.99
2018-12-07T02:51:22.749Z,94.74
2018-12-07T02:52:22.728Z,94.27
2018-12-07T02:53:22.719Z,93.32
2018-12-07T02:54:22.706Z,93.23
2018-12-07T02:55:22.690Z,92.57
2018-12-07T02:56:22.666Z,92.85
2018-12-07T02:57:22.657Z,92.76
2018-12-07T02:58:22.639Z,92.57
2018-12-07T02:59:22.626Z,92.66
2018-12-07T03:00:22.611Z,92.66
2018-12-07T03:01:22.597Z,93.23
2018-12-07T03:02:22.575Z,93.23
2018-12-07T03:03:22.560Z,93.41
2018-12-07T03:04:22.548Z,93.80
2018-12-07T03:05:22.532Z,94.08
2018-12-07T03:06:22.515Z,94.08
2018-12-07T03:07:22.499Z,93.99
2018-12-07T03:08:22.484Z,94.46
2018-12-07T03:09:22.464Z,94.08
2018-12-07T03:10:22.448Z,94.37
2018-12-07T03:11:22.439Z,93.89
2018-12-07T03:12:22.419Z,93.89
2018-12-07T03:13:22.402Z,93.89
2018-12-07T03:14:22.409Z,93.99
2018-12-07T03:15:22.373Z,94.08
2018-12-07T03:16:22.361Z,94.18
2018-12-07T03:17:22.344Z,93.61
2018-12-07T03:18:22.329Z,93.32
2018-12-07T03:19:22.307Z,93.23
2018-12-07T03:20:22.298Z,93.04
2018-12-07T03:21:22.282Z,93.04
2018-12-07T03:22:22.257Z,93.04
2018-12-07T03:23:22.249Z,93.04
2018-12-07T03:24:22.231Z,93.13
2018-12-07T03:25:22.207Z,92.94
2018-12-07T03:26:22.201Z,92.76
2018-12-07T03:27:22.193Z,92.94
2018-12-07T03:28:22.163Z,92.85
2018-12-07T03:29:22.152Z,92.18
2018-12-07T03:30:22.139Z,92.38
2018-12-07T03:31:22.121Z,92.09
2018-12-07T03:32:22.111Z,92.28
2018-12-07T03:33:22.092Z,92.85
2018-12-07T03:34:22.082Z,92.47
2018-12-07T03:35:22.056Z,92.76
2018-12-07T03:36:22.041Z,92.85
2018-12-07T03:37:22.028Z,92.76
2018-12-07T03:38:22.010Z,93.32
2018-12-07T03:39:21.998Z,93.13
2018-12-07T03:40:21.977Z,93.80
2018-12-07T03:41:21.961Z,94.27
2018-12-07T03:42:21.948Z,93.89
2018-12-07T03:43:21.937Z,94.18
2018-12-07T03:44:21.916Z,94.04
2018-12-07T03:45:21.931Z,94.56
2018-12-07T03:46:21.892Z,94.18
2018-12-07T03:47:21.871Z,94.84
2018-12-07T03:48:21.853Z,94.56
2018-12-07T03:49:21.844Z,94.74
2018-12-07T03:50:21.823Z,94.74
2018-12-07T03:51:21.805Z,94.08
2018-12-07T03:52:21.795Z,94.18
2018-12-07T03:53:21.778Z,94.08
2018-12-07T03:54:21.773Z,93.80
2018-12-07T03:55:21.749Z,94.18
2018-12-07T03:56:21.722Z,94.08
2018-12-07T03:57:21.713Z,94.18
2018-12-07T03:58:21.701Z,94.08
2018-12-07T03:59:21.677Z,94.18
2018-12-07T04:00:21.669Z,93.80
2018-12-07T04:01:21.651Z,94.74
2018-12-07T04:02:21.629Z,93.99
2018-12-07T04:03:21.627Z,94.56
2018-12-07T04:04:21.600Z,94.84
2018-12-07T04:05:21.589Z,94.65
2018-12-07T04:06:21.565Z,95.22
2018-12-07T04:07:21.553Z,94.84
2018-12-07T04:08:21.539Z,95.50
2018-12-07T04:09:21.520Z,95.50
2018-12-07T04:10:21.510Z,95.50
2018-12-07T04:11:21.500Z,95.60
2018-12-07T04:12:21.481Z,95.50
2018-12-07T04:13:21.461Z,95.50
2018-12-07T04:14:21.438Z,95.69
2018-12-07T04:15:21.422Z,95.22
2018-12-07T04:16:21.408Z,94.46
2018-12-07T04:17:21.395Z,94.93
2018-12-07T04:18:21.377Z,94.65
2018-12-07T04:19:21.365Z,94.84
2018-12-07T04:20:21.395Z,94.56
2018-12-07T04:21:21.336Z,93.99
2018-12-07T04:22:21.315Z,93.70
2018-12-07T04:23:21.294Z,93.32
2018-12-07T04:24:21.283Z,93.32
2018-12-07T04:25:21.266Z,93.32
2018-12-07T04:26:21.262Z,93.70
2018-12-07T04:27:21.240Z,94.56
2018-12-07T04:28:21.222Z,93.99
2018-12-07T04:29:21.207Z,94.27
2018-12-07T04:30:21.190Z,94.37
2018-12-07T04:31:21.178Z,94.74
2018-12-07T04:32:21.154Z,94.65
2018-12-07T04:33:21.144Z,94.93
2018-12-07T04:34:21.149Z,95.12
2018-12-07T04:35:21.114Z,95.03
2018-12-07T04:36:21.109Z,94.84
2018-12-07T04:37:21.079Z,94.08
2018-12-07T04:38:21.189Z,93.23
2018-12-07T04:39:21.049Z,92.85
2018-12-07T04:40:21.109Z,92.57
2018-12-07T04:41:21.016Z,92.57
2018-12-07T04:42:21.003Z,92.76
2018-12-07T04:43:20.977Z,93.32
2018-12-07T04:44:20.974Z,93.32
2018-12-07T04:45:20.957Z,93.51
2018-12-07T04:46:20.939Z,93.61
2018-12-07T04:47:20.923Z,93.61
2018-12-07T04:48:20.901Z,93.70
2018-12-07T04:49:20.890Z,93.61
2018-12-07T04:50:20.875Z,93.70
2018-12-07T04:51:20.861Z,93.80
2018-12-07T04:52:20.842Z,93.70
2018-12-07T04:53:20.827Z,93.99
2018-12-07T04:54:20.810Z,93.70
2018-12-07T04:55:20.797Z,93.70
2018-12-07T04:56:20.778Z,93.41
2018-12-07T04:57:20.769Z,92.94
2018-12-07T04:58:20.749Z,93.04
2018-12-07T04:59:20.733Z,93.51
2018-12-07T05:00:20.714Z,93.41
2018-12-07T05:01:20.705Z,93.51
2018-12-07T05:02:20.687Z,93.04
2018-12-07T05:03:20.673Z,92.94
2018-12-07T05:04:20.655Z,93.13
2018-12-07T05:05:20.643Z,92.94
2018-12-07T05:06:20.620Z,93.51
2018-12-07T05:07:20.617Z,93.41
2018-12-07T05:08:20.585Z,93.51
2018-12-07T05:09:20.579Z,93.13
2018-12-07T05:10:20.558Z,93.51
2018-12-07T05:11:20.543Z,93.23
2018-12-07T05:12:20.531Z,93.80
2018-12-07T05:13:20.509Z,93.61
2018-12-07T05:14:20.508Z,93.70
2018-12-07T05:15:20.479Z,93.89
2018-12-07T05:16:20.473Z,93.70
2018-12-07T05:17:20.448Z,93.80
2018-12-07T05:18:20.441Z,93.80
2018-12-07T05:19:20.420Z,93.23
2018-12-07T05:20:20.401Z,93.32
2018-12-07T05:21:20.390Z,92.94
2018-12-07T05:22:20.372Z,93.32
2018-12-07T05:23:20.353Z,93.32
2018-12-07T05:24:20.341Z,93.51
2018-12-07T05:25:20.322Z,93.32
2018-12-07T05:26:20.314Z,93.61
2018-12-07T05:27:20.294Z,93.51
2018-12-07T05:28:20.279Z,93.51
2018-12-07T05:29:20.260Z,93.04
2018-12-07T05:30:20.246Z,93.32
2018-12-07T05:31:20.228Z,93.32
2018-12-07T05:32:20.216Z,93.61
2018-12-07T05:33:20.197Z,93.80
2018-12-07T05:34:20.182Z,93.32
2018-12-07T05:35:20.169Z,93.70
2018-12-07T05:36:20.148Z,93.61
2018-12-07T05:37:20.133Z,93.61
2018-12-07T05:38:20.123Z,93.13
2018-12-07T05:39:20.102Z,92.85
2018-12-07T05:40:20.091Z,93.32
2018-12-07T05:41:20.074Z,92.94
2018-12-07T05:42:20.059Z,93.61
2018-12-07T05:43:20.043Z,93.23
2018-12-07T05:44:20.026Z,93.23
2018-12-07T05:45:20.003Z,93.70
2018-12-07T05:46:19.991Z,93.80
2018-12-07T05:47:19.973Z,93.70
2018-12-07T05:48:23.587Z,93.89
2018-12-07T05:49:19.945Z,93.89
2018-12-07T05:50:19.931Z,93.89
2018-12-07T05:51:19.910Z,93.51
2018-12-07T05:52:19.905Z,93.70
2018-12-07T05:53:19.880Z,93.89
2018-12-07T05:54:19.867Z,94.27
2018-12-07T05:55:19.865Z,93.89
2018-12-07T05:56:19.837Z,94.37
2018-12-07T05:57:19.818Z,94.18
2018-12-07T05:58:19.807Z,93.32
2018-12-07T05:59:19.793Z,92.38
2018-12-07T06:00:19.777Z,91.52
2018-12-07T06:01:19.756Z,91.80
2018-12-07T06:02:19.743Z,91.99
2018-12-07T06:03:19.726Z,91.99
2018-12-07T06:04:19.714Z,92.47
2018-12-07T06:05:19.697Z,92.85
2018-12-07T06:06:19.685Z,92.38
2018-12-07T06:07:19.665Z,93.23
2018-12-07T06:08:19.653Z,92.85
2018-12-07T06:09:19.634Z,93.32
2018-12-07T06:10:19.616Z,93.23
2018-12-07T06:11:19.602Z,93.70
2018-12-07T06:12:19.578Z,93.32
2018-12-07T06:13:19.569Z,93.61
2018-12-07T06:14:19.547Z,93.80
2018-12-07T06:15:19.552Z,93.70
2018-12-07T06:16:19.521Z,93.80
2018-12-07T06:17:19.511Z,93.80
2018-12-07T06:18:19.503Z,94.18
2018-12-07T06:19:19.475Z,93.89
2018-12-07T06:20:19.461Z,93.80
2018-12-07T06:21:19.442Z,94.65
2018-12-07T06:22:19.422Z,94.37
2018-12-07T06:23:19.409Z,94.37
2018-12-07T06:24:19.394Z,93.89
2018-12-07T06:25:19.395Z,94.74
2018-12-07T06:26:19.364Z,94.56
2018-12-07T06:27:19.351Z,93.99
2018-12-07T06:28:19.329Z,93.89
2018-12-07T06:29:19.318Z,93.99
2018-12-07T06:30:19.299Z,94.37
2018-12-07T06:31:19.292Z,94.56
2018-12-07T06:32:19.268Z,94.27
2018-12-07T06:33:19.251Z,94.37
2018-12-07T06:34:19.233Z,94.56
2018-12-07T06:35:19.215Z,93.99
2018-12-07T06:36:19.208Z,94.27
2018-12-07T06:37:19.191Z,94.27
2018-12-07T06:38:19.173Z,94.56
2018-12-07T06:39:19.157Z,93.89
2018-12-07T06:40:19.141Z,94.08
2018-12-07T06:41:19.128Z,93.89
2018-12-07T06:42:19.115Z,93.99
2018-12-07T06:43:19.095Z,93.80
2018-12-07T06:44:19.083Z,93.89
2018-12-07T06:45:19.066Z,94.46
2018-12-07T06:46:19.048Z,94.37
2018-12-07T06:47:19.032Z,94.37
2018-12-07T06:48:19.020Z,93.80
2018-12-07T06:49:18.997Z,94.27
2018-12-07T06:50:18.983Z,94.37
2018-12-07T06:51:18.971Z,93.99
2018-12-07T06:52:18.953Z,94.08
2018-12-07T06:53:18.942Z,93.99
2018-12-07T06:54:18.920Z,94.27
2018-12-07T06:55:18.956Z,94.27
2018-12-07T06:56:18.890Z,94.37
2018-12-07T06:57:18.876Z,93.99
2018-12-07T06:58:18.859Z,93.61
2018-12-07T06:59:18.850Z,92.85
2018-12-07T07:00:18.827Z,92.57
2018-12-07T07:01:18.821Z,92.85
2018-12-07T07:02:18.791Z,92.66
2018-12-07T07:03:18.779Z,92.38
2018-12-07T07:04:18.763Z,93.04
2018-12-07T07:05:18.751Z,93.04
2018-12-07T07:06:18.734Z,93.23
2018-12-07T07:07:18.710Z,93.13
2018-12-07T07:08:18.704Z,93.32
2018-12-07T07:09:18.681Z,93.04
2018-12-07T07:10:18.672Z,93.13
2018-12-07T07:11:18.654Z,92.85
2018-12-07T07:12:18.638Z,93.32
2018-12-07T07:13:18.619Z,93.51
2018-12-07T07:14:18.608Z,93.70
2018-12-07T07:15:18.589Z,93.41
2018-12-07T07:16:23.036Z,93.32
2018-12-07T07:17:18.564Z,93.51
2018-12-07T07:18:18.544Z,93.80
2018-12-07T07:19:18.528Z,93.61
2018-12-07T07:20:18.514Z,93.51
2018-12-07T07:21:18.494Z,93.75
2018-12-07T07:22:18.481Z,92.80
2018-12-07T07:23:18.465Z,92.90
2018-12-07T07:24:18.447Z,92.61
2018-12-07T07:25:18.434Z,92.52
2018-12-07T07:26:18.418Z,92.23
2018-12-07T07:27:18.406Z,92.14
2018-12-07T07:28:18.387Z,92.23
2018-12-07T07:29:18.406Z,92.52
2018-12-07T07:30:19.280Z,92.80
2018-12-07T07:31:18.338Z,92.80
2018-12-07T07:32:18.322Z,92.61
2018-12-07T07:33:18.314Z,93.37
2018-12-07T07:34:18.323Z,93.18
2018-12-07T07:35:18.277Z,92.99
2018-12-07T07:36:18.264Z,93.08
2018-12-07T07:37:18.242Z,93.08
2018-12-07T07:38:18.231Z,93.46
2018-12-07T07:39:18.213Z,93.46
2018-12-07T07:40:18.209Z,93.56
2018-12-07T07:41:18.180Z,93.37
2018-12-07T07:42:18.167Z,93.56
2018-12-07T07:43:18.157Z,93.18
2018-12-07T07:44:18.136Z,93.75
2018-12-07T07:45:18.119Z,93.65
2018-12-07T07:46:18.144Z,93.37
2018-12-07T07:47:18.089Z,93.37
2018-12-07T07:48:18.068Z,93.46
2018-12-07T07:49:18.069Z,93.46
2018-12-07T07:50:18.043Z,93.56
2018-12-07T07:51:18.033Z,93.46
2018-12-07T07:52:18.012Z,92.90
2018-12-07T07:53:18.000Z,93.46
2018-12-07T07:54:17.981Z,93.27
2018-12-07T07:55:17.967Z,93.37
2018-12-07T07:56:17.952Z,93.46
2018-12-07T07:57:17.930Z,93.65
2018-12-07T07:58:17.916Z,94.13
2018-12-07T07:59:17.904Z,94.51
2018-12-07T08:00:17.885Z,93.65
2018-12-07T08:01:17.876Z,93.65
2018-12-07T08:02:17.860Z,92.71
2018-12-07T08:03:17.843Z,92.04
2018-12-07T08:04:17.825Z,91.85
2018-12-07T08:05:17.808Z,91.85
2018-12-07T08:06:17.795Z,91.28
2018-12-07T08:07:17.777Z,91.66
2018-12-07T08:08:17.761Z,91.56
2018-12-07T08:09:17.750Z,91.19
2018-12-07T08:10:17.731Z,91.38
2018-12-07T08:11:17.715Z,91.09
2018-12-07T08:12:17.698Z,91.47
2018-12-07T08:13:17.689Z,91.19
2018-12-07T08:14:17.668Z,92.42
2018-12-07T08:15:17.654Z,93.08
2018-12-07T08:16:17.644Z,93.80
2018-12-07T08:17:17.623Z,93.99
2018-12-07T08:18:17.607Z,94.65
2018-12-07T08:19:17.591Z,93.89
2018-12-07T08:20:17.581Z,94.56
2018-12-07T08:21:17.557Z,94.93
2018-12-07T08:22:17.544Z,94.84
2018-12-07T08:23:17.528Z,95.12
2018-12-07T08:24:17.516Z,94.93
2018-12-07T08:25:17.499Z,95.70
2018-12-07T08:26:17.522Z,95.31
2018-12-07T08:27:17.469Z,95.79
2018-12-07T08:28:17.457Z,96.17
2018-12-07T08:29:17.440Z,95.22
2018-12-07T08:30:17.420Z,95.89
2018-12-07T08:31:17.405Z,95.22
2018-12-07T08:32:17.394Z,95.03
2018-12-07T08:33:17.375Z,94.74
2018-12-07T08:34:17.359Z,94.93
2018-12-07T08:35:17.346Z,95.31
2018-12-07T08:36:17.336Z,93.99
2018-12-07T08:37:17.312Z,93.04
2018-12-07T08:38:17.298Z,92.75
2018-12-07T08:39:17.285Z,92.94
2018-12-07T08:40:17.264Z,93.23
2018-12-07T08:41:17.253Z,93.41
2018-12-07T08:42:17.277Z,92.66
2018-12-07T08:43:17.223Z,92.75
2018-12-07T08:44:17.267Z,93.13
2018-12-07T08:45:17.193Z,93.80
2018-12-07T08:46:17.175Z,94.23
2018-12-07T08:47:17.156Z,94.18
2018-12-07T08:48:17.145Z,94.65
2018-12-07T08:49:17.128Z,94.51
2018-12-07T08:50:17.114Z,94.70
2018-12-07T08:51:17.098Z,94.51
2018-12-07T08:52:17.084Z,95.08
2018-12-07T08:53:17.068Z,94.89
2018-12-07T08:54:17.064Z,93.65
2018-12-07T08:55:17.040Z,93.27
2018-12-07T08:56:17.026Z,93.84
2018-12-07T08:57:17.009Z,94.60
2018-12-07T08:58:16.995Z,94.51
2018-12-07T08:59:16.973Z,95.17
2018-12-07T09:00:16.963Z,94.79
2018-12-07T09:01:16.953Z,93.56
2018-12-07T09:02:16.932Z,91.56
2018-12-07T09:03:16.925Z,90.99
2018-12-07T09:04:16.900Z,91.09
2018-12-07T09:05:16.882Z,91.38
2018-12-07T09:06:16.873Z,92.13
2018-12-07T09:07:17.738Z,92.61
2018-12-07T09:08:16.841Z,93.27
2018-12-07T09:09:16.827Z,92.23
2018-12-07T09:10:16.811Z,91.66
2018-12-07T09:11:16.801Z,92.13
2018-12-07T09:12:16.785Z,92.51
2018-12-07T09:13:16.768Z,93.08
2018-12-07T09:14:16.754Z,92.51
2018-12-07T09:15:16.748Z,92.71
2018-12-07T09:16:16.729Z,92.90
2018-12-07T09:17:16.708Z,92.61
2018-12-07T09:18:16.692Z,91.94
2018-12-07T09:19:16.680Z,91.66
2018-12-07T09:20:16.664Z,91.28
2018-12-07T09:21:16.645Z,91.75
2018-12-07T09:22:16.633Z,90.90
2018-12-07T09:23:16.616Z,90.61
2018-12-07T09:24:16.607Z,91.66
2018-12-07T09:25:16.593Z,91.75
2018-12-07T09:26:16.573Z,92.32
2018-12-07T09:27:16.569Z,92.18
2018-12-07T09:28:16.540Z,91.80
2018-12-07T09:29:16.531Z,90.37
2018-12-07T09:30:16.515Z,89.90
2018-12-07T09:31:16.498Z,89.90
2018-12-07T09:32:16.487Z,89.23
2018-12-07T09:33:16.473Z,89.23
2018-12-07T09:34:16.453Z,89.71
2018-12-07T09:35:16.443Z,90.75
2018-12-07T09:36:16.421Z,90.94
2018-12-07T09:37:16.414Z,91.80
2018-12-07T09:38:16.390Z,92.56
2018-12-07T09:39:16.380Z,92.37
2018-12-07T09:40:16.363Z,92.37
2018-12-07T09:41:16.355Z,92.85
2018-12-07T09:42:16.336Z,92.66
2018-12-07T09:43:16.321Z,93.51
2018-12-07T09:44:16.307Z,92.85
2018-12-07T09:45:16.291Z,92.37
2018-12-07T09:46:16.277Z,91.99
2018-12-07T09:47:16.266Z,91.71
2018-12-07T09:48:16.244Z,91.33
2018-12-07T09:49:16.239Z,91.71
2018-12-07T09:50:16.220Z,91.71
2018-12-07T09:51:16.201Z,91.23
2018-12-07T09:52:16.188Z,90.94
2018-12-07T09:53:16.186Z,90.56
2018-12-07T09:54:16.156Z,89.90
2018-12-07T09:55:16.147Z,89.71
2018-12-07T09:56:16.129Z,89.80
2018-12-07T09:57:16.116Z,88.67
2018-12-07T09:58:16.098Z,88.95
2018-12-07T09:59:16.086Z,88.67
2018-12-07T10:00:16.071Z,88.33
2018-12-07T10:01:16.051Z,89.28
2018-12-07T10:02:16.041Z,87.76
2018-12-07T10:03:16.027Z,86.61
2018-12-07T10:04:16.012Z,87.09
2018-12-07T10:05:16.001Z,88.04
2018-12-07T10:06:15.986Z,88.42
2018-12-07T10:07:15.970Z,88.42
2018-12-07T10:08:15.959Z,88.33
2018-12-07T10:09:15.939Z,88.71
2018-12-07T10:10:15.927Z,88.71
2018-12-07T10:11:15.913Z,89.75
2018-12-07T10:12:15.901Z,89.66
2018-12-07T10:13:15.885Z,88.52
2018-12-07T10:14:15.863Z,88.42
2018-12-07T10:15:15.860Z,89.75
2018-12-07T10:16:15.840Z,88.90
2018-12-07T10:17:15.834Z,87.85
2018-12-07T10:18:15.813Z,87.66
2018-12-07T10:19:15.796Z,87.38
2018-12-07T10:20:15.780Z,88.04
2018-12-07T10:21:15.769Z,88.18
2018-12-07T10:22:15.753Z,88.33
2018-12-07T10:23:15.745Z,87.85
2018-12-07T10:24:15.723Z,87.85
2018-12-07T10:25:15.714Z,87.90
2018-12-07T10:26:15.699Z,87.52
2018-12-07T10:27:15.686Z,87.23
2018-12-07T10:28:15.661Z,86.94
2018-12-07T10:29:15.655Z,87.04
2018-12-07T10:30:15.640Z,87.32
2018-12-07T10:31:15.625Z,86.94
2018-12-07T10:32:15.620Z,87.52
2018-12-07T10:33:15.590Z,87.52
2018-12-07T10:34:15.585Z,87.23
2018-12-07T10:35:15.569Z,87.04
2018-12-07T10:36:15.556Z,87.13
2018-12-07T10:37:15.539Z,86.18
2018-12-07T10:38:15.524Z,86.94
2018-12-07T10:39:15.513Z,85.71
2018-12-07T10:40:15.502Z,84.85
2018-12-07T10:41:15.480Z,84.95
2018-12-07T10:42:15.470Z,84.76
2018-12-07T10:43:15.454Z,85.42
2018-12-07T10:44:15.443Z,84.85
2018-12-07T10:45:15.426Z,83.81
2018-12-07T10:46:15.411Z,83.94
2018-12-07T10:47:15.401Z,83.47
2018-12-07T10:48:15.383Z,83.94
2018-12-07T10:49:15.371Z,83.18
2018-12-07T10:50:15.358Z,83.18
2018-12-07T10:51:15.343Z,82.51
2018-12-07T10:52:15.323Z,82.42
2018-12-07T10:53:15.313Z,83.09
2018-12-07T10:54:15.302Z,82.99
2018-12-07T10:55:15.290Z,82.90
2018-12-07T10:56:15.275Z,82.90
2018-12-07T10:57:15.261Z,82.32
2018-12-07T10:58:15.245Z,83.18
2018-12-07T10:59:15.233Z,83.09
2018-12-07T11:00:22.602Z,83.56
2018-12-07T11:01:15.201Z,83.56
2018-12-07T11:02:15.194Z,83.94
2018-12-07T11:03:15.175Z,83.56
2018-12-07T11:04:15.166Z,84.13
2018-12-07T11:05:15.150Z,82.80
2018-12-07T11:06:15.146Z,82.42
2018-12-07T11:07:15.123Z,82.04
2018-12-07T11:08:15.105Z,81.76
2018-12-07T11:09:15.102Z,81.85
2018-12-07T11:10:15.079Z,82.32
2018-12-07T11:11:15.059Z,82.80
2018-12-07T11:12:15.054Z,82.80
2018-12-07T11:13:15.048Z,82.80
2018-12-07T11:14:15.024Z,83.56
2018-12-07T11:15:15.004Z,82.70
2018-12-07T11:16:14.998Z,80.99
2018-12-07T11:17:14.980Z,80.99
2018-12-07T11:18:14.970Z,81.95
2018-12-07T11:19:14.961Z,80.71
2018-12-07T11:20:14.943Z,79.19
2018-12-07T11:21:14.927Z,78.65
2018-12-07T11:22:14.915Z,78.85
2018-12-07T11:23:14.899Z,77.42
2018-12-07T11:24:14.891Z,76.18
2018-12-07T11:25:14.873Z,73.99
2018-12-07T11:26:14.859Z,74.24
2018-12-07T11:27:14.843Z,75.04
2018-12-07T11:28:14.832Z,75.51
2018-12-07T11:29:14.820Z,75.09
2018-12-07T11:30:14.803Z,75.13
2018-12-07T11:31:14.798Z,76.33
2018-12-07T11:32:14.776Z,77.51
2018-12-07T11:33:14.762Z,76.08
2018-12-07T11:34:14.750Z,75.99
2018-12-07T11:35:14.735Z,77.42
2018-12-07T11:36:14.723Z,77.22
2018-12-07T11:37:14.711Z,75.79
2018-12-07T11:38:14.693Z,75.89
2018-12-07T11:39:14.679Z,75.13
2018-12-07T11:40:14.670Z,75.60
2018-12-07T11:41:14.652Z,75.64
2018-12-07T11:42:14.639Z,74.21
2018-12-07T11:43:14.628Z,73.65
2018-12-07T11:44:14.615Z,72.78
2018-12-07T11:45:14.613Z,70.88
2018-12-07T11:46:14.587Z,71.07
2018-12-07T11:47:14.575Z,70.78
2018-12-07T11:48:14.563Z,69.96
2018-12-07T11:49:14.549Z,69.20
2018-12-07T11:50:14.533Z,69.52
2018-12-07T11:51:14.524Z,67.04
2018-12-07T11:52:14.510Z,63.42
2018-12-07T11:53:14.490Z,62.46
2018-12-07T11:54:14.486Z,61.80
2018-12-07T11:55:14.464Z,62.94
2018-12-07T11:56:14.454Z,63.32
2018-12-07T11:57:14.444Z,63.51
2018-12-07T11:58:14.428Z,64.18
2018-12-07T11:59:14.416Z,63.23
2018-12-07T12:00:14.403Z,63.23
2018-12-07T12:01:14.391Z,64.65
2018-12-07T12:02:14.373Z,66.28
2018-12-07T12:03:14.363Z,65.99
2018-12-07T12:04:14.353Z,66.72
2018-12-07T12:05:14.341Z,67.39
2018-12-07T12:06:14.324Z,67.86
2018-12-07T12:07:14.319Z,68.15
2018-12-07T12:08:14.299Z,68.53
2018-12-07T12:09:14.288Z,68.34
2018-12-07T12:10:14.276Z,68.05
2018-12-07T12:11:14.263Z,66.91
2018-12-07T12:12:14.248Z,67.48
2018-12-07T12:13:14.236Z,67.29
2018-12-07T12:14:14.218Z,67.77
2018-12-07T12:15:14.211Z,68.72
2018-12-07T12:16:14.233Z,69.87
2018-12-07T12:17:14.195Z,70.38
2018-12-07T12:18:14.171Z,70.67
2018-12-07T12:19:14.161Z,68.66
2018-12-07T12:20:14.147Z,68.09
2018-12-07T12:21:14.133Z,66.75
2018-12-07T12:22:14.119Z,66.69
2018-12-07T12:23:14.105Z,67.55
2018-12-07T12:24:14.092Z,66.15
2018-12-07T12:25:14.080Z,65.96
2018-12-07T12:26:14.068Z,66.25
2018-12-07T12:27:14.056Z,64.81
2018-12-07T12:28:14.056Z,63.80
2018-12-07T12:29:14.034Z,63.23
2018-12-07T12:30:14.022Z,63.23
2018-12-07T12:31:14.008Z,62.46
2018-12-07T12:32:13.993Z,62.30
2018-12-07T12:33:13.984Z,62.21
2018-12-07T12:34:13.969Z,62.24
2018-12-07T12:35:13.951Z,62.62
2018-12-07T12:36:17.103Z,61.57
2018-12-07T12:37:13.936Z,60.99
2018-12-07T12:38:13.923Z,60.33
2018-12-07T12:39:13.913Z,60.49
2018-12-07T12:40:13.901Z,61.16
2018-12-07T12:41:13.886Z,61.44
2018-12-07T12:42:13.877Z,62.11
2018-12-07T12:43:13.864Z,61.16
2018-12-07T12:44:13.851Z,60.10
2018-12-07T12:45:13.840Z,62.27
2018-12-07T12:46:13.825Z,63.64
2018-12-07T12:47:13.814Z,62.40
2018-12-07T12:48:13.802Z,62.52
2018-12-07T12:49:13.795Z,60.99
2018-12-07T12:50:13.793Z,61.19
2018-12-07T12:51:13.770Z,61.57
2018-12-07T12:52:13.758Z,62.71